This is the latest recevied weather packets stored in our database for station/object KB3YCK-2. If no packets are shown the sender has not sent any weather packets the latest 10 day(s).
| Time | Temp. | Humidity | Pressure | Rain* | Wind** | Luminosity | Snow |
|---|---|---|---|---|---|---|---|
| 1777929008 | 22.22° C | 57% | 1010.4 hPa | 0 mm | - | 468 W/m² | - |
| 1777927525 | 22.78° C | 55% | 1010.3 hPa | 0 mm | - | 540 W/m² | - |
| 1777926004 | 22.22° C | 56% | 1010.5 hPa | 0 mm | - | 612 W/m² | - |
| 1777925708 | 22.22° C | 58% | 1010.8 hPa | 0 mm | - | 621 W/m² | - |
| 1777923605 | 22.22° C | 60% | 1011.4 hPa | 0 mm | - | 701 W/m² | - |
| 1777923307 | 21.67° C | 58% | 1011.4 hPa | 0 mm | - | 714 W/m² | - |
| 1777921503 | 21.67° C | 60% | 1011.8 hPa | 0 mm | - | 779 W/m² | - |
| 1777921211 | 21.67° C | 63% | 1011.8 hPa | 0 mm | - | 788 W/m² | - |
| 1777920309 | 21.67° C | 58% | 1011.9 hPa | 0 mm | - | 772 W/m² | - |
| 1777918508 | 21.67° C | 61% | 1012.3 hPa | 0 mm | - | 837 W/m² | - |
| 1777917609 | 21.67° C | 62% | 1012.5 hPa | 0 mm | - | 867 W/m² | - |
| 1777916109 | 20.56° C | 68% | 1012.8 hPa | 0 mm | - | 882 W/m² | - |
| 1777915502 | 21.11° C | 63% | 1013 hPa | 0 mm | - | 884 W/m² | - |
| 1777915210 | 20.56° C | 63% | 1012.9 hPa | 0 mm | - | 891 W/m² | - |
| 1777913707 | 20.56° C | 63% | 1013.3 hPa | 0 mm | - | 891 W/m² | - |
| 1777911003 | 20° C | 64% | 1013.7 hPa | 0 mm | - | 874 W/m² | - |
| 1777910704 | 20° C | 60% | 1013.8 hPa | 0 mm | - | 870 W/m² | - |
| 1777908302 | 19.44° C | 65% | 1014.1 hPa | 0 mm | - | 830 W/m² | - |
| 1777907103 | 18.33° C | 65% | 1014.3 hPa | 0 mm | - | 802 W/m² | - |
| 1777906810 | 18.33° C | 65% | 1014.3 hPa | 0 mm | - | 793 W/m² | - |
| 1777904141 | 16.67° C | 74% | 1014.4 hPa | 0 mm | - | 696 W/m² | - |
| 1777900503 | 12.78° C | 80% | 1014.7 hPa | 0 mm | - | 522 W/m² | - |
| 1777899621 | 12.22° C | 82% | 1014.9 hPa | 0 mm | - | 56 W/m² | - |
| 1777897807 | 10° C | 87% | 1014.7 hPa | 0 mm | - | 44 W/m² | - |
| 1777895118 | 6.11° C | 89% | 1014.9 hPa | 0 mm | - | 37 W/m² | - |
* Rain latest hour (hover to see other rain measurements)
** Current wind speed in m/s (hover to see current wind gust speed)